createdAt,value
2019-01-26T00:00:59.634Z,976.00
2019-01-26T00:01:59.494Z,976.06
2019-01-26T00:02:59.467Z,976.00
2019-01-26T00:03:59.422Z,975.98
2019-01-26T00:04:59.344Z,975.97
2019-01-26T00:05:59.302Z,976.00
2019-01-26T00:06:59.262Z,975.99
2019-01-26T00:07:59.210Z,976.00
2019-01-26T00:08:59.177Z,975.97
2019-01-26T00:09:59.136Z,976.06
2019-01-26T00:10:59.087Z,976.03
2019-01-26T00:11:59.034Z,975.97
2019-01-26T00:12:58.998Z,975.95
2019-01-26T00:13:58.956Z,976.04
2019-01-26T00:14:58.901Z,975.99
2019-01-26T00:15:58.871Z,976.07
2019-01-26T00:16:58.833Z,976.02
2019-01-26T00:17:58.791Z,975.97
2019-01-26T00:18:58.779Z,976.05
2019-01-26T00:19:58.689Z,975.94
2019-01-26T00:20:58.650Z,975.96
2019-01-26T00:21:58.633Z,975.90
2019-01-26T00:22:58.631Z,976.04
2019-01-26T00:23:58.518Z,976.00
2019-01-26T00:24:58.477Z,975.96
2019-01-26T00:25:58.439Z,975.92
2019-01-26T00:26:58.407Z,975.82
2019-01-26T00:27:58.344Z,975.82
2019-01-26T00:28:58.287Z,975.82
2019-01-26T00:29:58.253Z,975.78
2019-01-26T00:30:58.204Z,975.74
2019-01-26T00:31:58.177Z,975.75
2019-01-26T00:32:58.120Z,975.61
2019-01-26T00:33:58.094Z,975.59
2019-01-26T00:34:58.025Z,975.56
2019-01-26T00:35:57.999Z,975.56
2019-01-26T00:36:58.029Z,975.52
2019-01-26T00:37:57.889Z,975.55
2019-01-26T00:38:57.852Z,975.49
2019-01-26T00:39:57.863Z,975.48
2019-01-26T00:40:57.906Z,975.48
2019-01-26T00:41:57.733Z,975.52
2019-01-26T00:42:57.702Z,975.42
2019-01-26T00:43:57.671Z,975.41
2019-01-26T00:44:57.596Z,975.28
2019-01-26T00:45:57.549Z,975.26
2019-01-26T00:46:57.496Z,975.32
2019-01-26T00:47:57.482Z,975.27
2019-01-26T00:48:57.441Z,975.31
2019-01-26T00:49:57.500Z,975.34
2019-01-26T00:50:57.337Z,975.37
2019-01-26T00:51:57.282Z,975.32
2019-01-26T00:52:57.263Z,975.36
2019-01-26T00:53:57.326Z,975.29
2019-01-26T00:54:57.153Z,975.24
2019-01-26T00:55:57.113Z,975.21
2019-01-26T00:56:57.083Z,975.21
2019-01-26T00:57:57.027Z,975.10
2019-01-26T00:58:57.021Z,975.13
2019-01-26T00:59:56.931Z,975.10
2019-01-26T01:00:56.877Z,975.00
2019-01-26T01:01:56.865Z,974.97
2019-01-26T01:02:56.801Z,974.96
2019-01-26T01:03:56.783Z,974.95
2019-01-26T01:04:56.719Z,974.91
2019-01-26T01:05:56.666Z,974.96
2019-01-26T01:06:56.638Z,974.84
2019-01-26T01:07:56.579Z,974.92
2019-01-26T01:08:56.567Z,974.93
2019-01-26T01:09:56.496Z,974.89
2019-01-26T01:10:56.467Z,974.86
2019-01-26T01:11:56.475Z,974.82
2019-01-26T01:12:56.355Z,974.89
2019-01-26T01:13:56.316Z,974.90
2019-01-26T01:14:56.307Z,974.80
2019-01-26T01:15:56.223Z,974.85
2019-01-26T01:16:56.186Z,974.80
2019-01-26T01:17:56.168Z,974.76
2019-01-26T01:18:56.130Z,974.76
2019-01-26T01:19:56.045Z,974.77
2019-01-26T01:20:56.039Z,974.68
2019-01-26T01:21:55.963Z,974.60
2019-01-26T01:23:31.713Z,974.63
2019-01-26T01:23:55.919Z,974.71
2019-01-26T01:24:55.859Z,974.55
2019-01-26T01:25:55.781Z,974.54
2019-01-26T01:26:55.814Z,974.54
2019-01-26T01:27:55.719Z,974.52
2019-01-26T01:28:55.669Z,974.56
2019-01-26T01:29:55.604Z,974.61
2019-01-26T01:30:55.565Z,974.64
2019-01-26T01:31:55.525Z,974.65
2019-01-26T01:33:32.589Z,974.66
2019-01-26T01:33:55.434Z,974.73
2019-01-26T01:34:55.571Z,974.68
2019-01-26T01:35:55.357Z,974.67
2019-01-26T01:36:55.326Z,974.67
2019-01-26T01:37:55.284Z,974.64
2019-01-26T01:38:55.227Z,974.62
2019-01-26T01:39:55.177Z,974.63
2019-01-26T01:40:55.129Z,974.59
2019-01-26T01:41:55.112Z,974.52
2019-01-26T01:42:55.061Z,974.57
2019-01-26T01:43:55.002Z,974.67
2019-01-26T01:44:54.957Z,974.57
2019-01-26T01:45:54.910Z,974.63
2019-01-26T01:46:54.868Z,974.67
2019-01-26T01:47:54.815Z,974.63
2019-01-26T01:48:54.798Z,974.65
2019-01-26T01:49:54.731Z,974.59
2019-01-26T01:50:54.720Z,974.58
2019-01-26T01:51:54.667Z,974.51
2019-01-26T01:52:54.602Z,974.52
2019-01-26T01:53:54.573Z,974.47
2019-01-26T01:54:54.524Z,974.40
2019-01-26T01:55:54.484Z,974.44
2019-01-26T01:56:54.431Z,974.43
2019-01-26T01:57:54.394Z,974.33
2019-01-26T01:58:54.368Z,974.40
2019-01-26T01:59:54.298Z,974.38
2019-01-26T02:00:54.258Z,974.39
2019-01-26T02:01:54.222Z,974.28
2019-01-26T02:02:54.185Z,974.37
2019-01-26T02:03:54.146Z,974.31
2019-01-26T02:04:54.156Z,974.31
2019-01-26T02:05:54.060Z,974.27
2019-01-26T02:06:53.993Z,974.27
2019-01-26T02:07:53.967Z,974.27
2019-01-26T02:08:53.914Z,974.21
2019-01-26T02:09:54.003Z,974.09
2019-01-26T02:10:53.827Z,974.13
2019-01-26T02:11:53.809Z,974.10
2019-01-26T02:12:53.774Z,974.17
2019-01-26T02:13:53.686Z,974.20
2019-01-26T02:14:53.662Z,974.12
2019-01-26T02:15:53.659Z,974.04
2019-01-26T02:16:53.598Z,974.11
2019-01-26T02:17:53.510Z,973.92
2019-01-26T02:18:53.481Z,974.12
2019-01-26T02:19:53.443Z,974.12
2019-01-26T02:20:53.389Z,974.05
2019-01-26T02:21:53.355Z,974.05
2019-01-26T02:22:53.317Z,974.11
2019-01-26T02:23:53.287Z,974.08
2019-01-26T02:24:53.215Z,974.14
2019-01-26T02:25:53.210Z,974.13
2019-01-26T02:26:53.156Z,974.08
2019-01-26T02:27:53.103Z,974.05
2019-01-26T02:28:53.034Z,974.15
2019-01-26T02:29:53.011Z,974.06
2019-01-26T02:30:52.946Z,974.01
2019-01-26T02:31:52.913Z,974.16
2019-01-26T02:32:54.592Z,974.10
2019-01-26T02:33:52.846Z,974.02
2019-01-26T02:34:52.781Z,974.07
2019-01-26T02:35:52.736Z,973.99
2019-01-26T02:36:52.697Z,974.00
2019-01-26T02:37:52.724Z,974.00
2019-01-26T02:38:52.609Z,974.03
2019-01-26T02:39:52.603Z,974.03
2019-01-26T02:40:52.515Z,974.02
2019-01-26T02:41:52.614Z,973.91
2019-01-26T02:42:52.445Z,973.96
2019-01-26T02:43:52.395Z,973.94
2019-01-26T02:44:52.341Z,973.96
2019-01-26T02:45:52.378Z,973.92
2019-01-26T02:46:57.962Z,973.99
2019-01-26T02:47:52.286Z,973.93
2019-01-26T02:48:52.174Z,973.94
2019-01-26T02:49:52.218Z,973.97
2019-01-26T02:50:52.077Z,973.93
2019-01-26T02:51:52.057Z,973.87
2019-01-26T02:52:52.009Z,973.91
2019-01-26T02:53:51.978Z,973.88
2019-01-26T02:54:51.902Z,973.91
2019-01-26T02:55:51.873Z,973.92
2019-01-26T02:56:51.810Z,973.87
2019-01-26T02:57:51.772Z,973.87
2019-01-26T02:58:51.717Z,973.86
2019-01-26T02:59:51.718Z,973.85
2019-01-26T03:00:51.637Z,973.82
2019-01-26T03:01:51.610Z,973.85
2019-01-26T03:02:51.551Z,973.87
2019-01-26T03:03:51.567Z,973.89
2019-01-26T03:04:51.451Z,973.85
2019-01-26T03:05:51.482Z,973.88
2019-01-26T03:06:51.385Z,973.89
2019-01-26T03:07:51.406Z,973.88
2019-01-26T03:08:51.284Z,973.85
2019-01-26T03:09:51.340Z,973.86
2019-01-26T03:10:51.208Z,973.79
2019-01-26T03:11:51.202Z,973.84
2019-01-26T03:12:51.102Z,973.77
2019-01-26T03:13:51.083Z,973.81
2019-01-26T03:14:51.013Z,973.81
2019-01-26T03:15:51.046Z,973.81
2019-01-26T03:16:50.937Z,973.81
2019-01-26T03:17:50.917Z,973.74
2019-01-26T03:18:50.840Z,973.71
2019-01-26T03:19:50.847Z,973.62
2019-01-26T03:20:50.750Z,973.69
2019-01-26T03:21:50.782Z,973.63
2019-01-26T03:22:50.671Z,973.68
2019-01-26T03:23:50.707Z,973.68
2019-01-26T03:24:50.590Z,973.67
2019-01-26T03:25:50.560Z,973.64
2019-01-26T03:26:50.500Z,973.74
2019-01-26T03:27:50.465Z,973.69
2019-01-26T03:28:50.494Z,973.68
2019-01-26T03:29:50.456Z,973.69
2019-01-26T03:30:50.336Z,973.70
2019-01-26T03:31:50.283Z,973.67
2019-01-26T03:32:50.234Z,973.67
2019-01-26T03:33:50.225Z,973.59
2019-01-26T03:34:50.170Z,973.58
2019-01-26T03:35:50.110Z,973.54
2019-01-26T03:36:50.063Z,973.56
2019-01-26T03:37:50.030Z,973.62
2019-01-26T03:38:49.994Z,973.62
2019-01-26T03:39:49.945Z,973.63
2019-01-26T03:40:49.900Z,973.64
2019-01-26T03:41:49.846Z,973.60
2019-01-26T03:42:49.831Z,973.58
2019-01-26T03:43:49.762Z,973.55
2019-01-26T03:44:49.721Z,973.60
2019-01-26T03:45:49.683Z,973.59
2019-01-26T03:46:49.680Z,973.68
2019-01-26T03:47:49.603Z,973.61
2019-01-26T03:48:49.603Z,973.63
2019-01-26T03:49:49.507Z,973.62
2019-01-26T03:50:49.486Z,973.60
2019-01-26T03:51:49.478Z,973.58
2019-01-26T03:52:49.385Z,973.62
2019-01-26T03:53:49.391Z,973.55
2019-01-26T03:54:49.351Z,973.56
2019-01-26T03:55:49.233Z,973.60
2019-01-26T03:56:49.228Z,973.62
2019-01-26T03:57:49.172Z,973.61
2019-01-26T03:58:49.107Z,973.57
2019-01-26T03:59:49.066Z,973.56
2019-01-26T04:00:49.040Z,973.60
2019-01-26T04:01:49.003Z,973.58
2019-01-26T04:02:48.935Z,973.55
2019-01-26T04:03:48.896Z,973.55
2019-01-26T04:04:48.843Z,973.51
2019-01-26T04:05:48.814Z,973.52
2019-01-26T04:06:48.818Z,973.51
2019-01-26T04:07:48.714Z,973.54
2019-01-26T04:08:48.762Z,973.48
2019-01-26T04:09:48.638Z,973.46
2019-01-26T04:10:48.685Z,973.47
2019-01-26T04:11:48.614Z,973.42
2019-01-26T04:12:48.527Z,973.44
2019-01-26T04:13:48.483Z,973.41
2019-01-26T04:14:48.463Z,973.47
2019-01-26T04:15:48.453Z,973.42
2019-01-26T04:16:48.402Z,973.44
2019-01-26T04:17:48.408Z,973.42
2019-01-26T04:18:48.349Z,973.45
2019-01-26T04:19:48.221Z,973.51
2019-01-26T04:20:48.317Z,973.54
2019-01-26T04:21:48.318Z,973.48
2019-01-26T04:22:48.073Z,973.54
2019-01-26T04:23:48.204Z,973.48
2019-01-26T04:24:48.618Z,973.47
2019-01-26T04:25:47.946Z,973.44
2019-01-26T04:26:47.973Z,973.51
2019-01-26T04:27:47.956Z,973.49
2019-01-26T04:28:48.027Z,973.52
2019-01-26T04:29:47.796Z,973.53
2019-01-26T04:30:48.613Z,973.54
2019-01-26T04:31:47.703Z,973.53
2019-01-26T04:32:48.081Z,973.50
2019-01-26T04:33:47.663Z,973.53
2019-01-26T04:34:47.555Z,973.54
2019-01-26T04:35:47.481Z,973.54
2019-01-26T04:36:47.451Z,973.55
2019-01-26T04:37:47.405Z,973.55
2019-01-26T04:38:47.368Z,973.54
2019-01-26T04:39:47.328Z,973.50
2019-01-26T04:40:47.278Z,973.50
2019-01-26T04:41:47.304Z,973.48
2019-01-26T04:42:47.264Z,973.46
2019-01-26T04:43:47.163Z,973.42
2019-01-26T04:44:47.250Z,973.50
2019-01-26T04:45:47.090Z,973.47
2019-01-26T04:46:47.100Z,973.49
2019-01-26T04:47:47.036Z,973.51
2019-01-26T04:48:47.066Z,973.46
2019-01-26T04:49:46.995Z,973.48
2019-01-26T04:50:46.906Z,973.47
2019-01-26T04:51:46.880Z,973.45
2019-01-26T04:52:46.843Z,973.45
2019-01-26T04:53:46.756Z,973.44
2019-01-26T04:54:46.730Z,973.42
2019-01-26T04:55:46.661Z,973.42
2019-01-26T04:56:46.622Z,973.47
2019-01-26T04:57:46.694Z,973.47
2019-01-26T04:58:46.634Z,973.50
2019-01-26T04:59:46.497Z,973.53
2019-01-26T05:00:46.502Z,973.50
2019-01-26T05:01:46.423Z,973.57
2019-01-26T05:02:46.361Z,973.56
2019-01-26T05:03:46.410Z,973.55
2019-01-26T05:04:47.122Z,973.55
2019-01-26T05:05:46.252Z,973.53
2019-01-26T05:06:46.181Z,973.56
2019-01-26T05:07:46.155Z,973.50
2019-01-26T05:08:46.188Z,973.49
2019-01-26T05:09:46.176Z,973.46
2019-01-26T05:10:45.974Z,973.54
2019-01-26T05:11:46.059Z,973.51
2019-01-26T05:12:46.068Z,973.48
2019-01-26T05:13:45.948Z,973.51
2019-01-26T05:14:46.629Z,973.47
2019-01-26T05:15:46.672Z,973.48
2019-01-26T05:16:45.906Z,973.47
2019-01-26T05:17:45.786Z,973.46
2019-01-26T05:18:45.684Z,973.49
2019-01-26T05:19:45.725Z,973.49
2019-01-26T05:20:45.669Z,973.52
2019-01-26T05:21:45.525Z,973.47
2019-01-26T05:22:46.143Z,973.48
2019-01-26T05:23:45.505Z,973.46
2019-01-26T05:24:45.466Z,973.47
2019-01-26T05:25:45.389Z,973.48
2019-01-26T05:26:45.310Z,973.51
2019-01-26T05:27:45.320Z,973.46
2019-01-26T05:28:45.246Z,973.49
2019-01-26T05:29:46.125Z,973.47
2019-01-26T05:30:45.627Z,973.42
2019-01-26T05:31:45.108Z,973.46
2019-01-26T05:32:45.106Z,973.49
2019-01-26T05:33:45.034Z,973.47
2019-01-26T05:34:44.986Z,973.49
2019-01-26T05:35:44.898Z,973.48
2019-01-26T05:36:44.871Z,973.51
2019-01-26T05:37:45.648Z,973.48
2019-01-26T05:38:44.967Z,973.54
2019-01-26T05:39:44.771Z,973.53
2019-01-26T05:40:44.740Z,973.55
2019-01-26T05:41:44.639Z,973.53
2019-01-26T05:42:44.589Z,973.57
2019-01-26T05:43:44.570Z,973.56
2019-01-26T05:44:44.512Z,973.51
2019-01-26T05:45:44.495Z,973.53
2019-01-26T05:46:44.424Z,973.57
2019-01-26T05:47:49.102Z,973.61
2019-01-26T05:48:44.361Z,973.53
2019-01-26T05:49:44.381Z,973.60
2019-01-26T05:50:44.255Z,973.56
2019-01-26T05:51:45.127Z,973.63
2019-01-26T05:52:44.162Z,973.61
2019-01-26T05:53:44.114Z,973.59
2019-01-26T05:54:44.090Z,973.58
2019-01-26T05:55:44.190Z,973.57
2019-01-26T05:56:43.990Z,973.53
2019-01-26T05:57:43.982Z,973.47
2019-01-26T05:58:43.915Z,973.48
2019-01-26T05:59:44.627Z,973.47
2019-01-26T06:00:43.887Z,973.41
2019-01-26T06:01:43.879Z,973.48
2019-01-26T06:02:43.821Z,973.47
2019-01-26T06:03:43.774Z,973.45
2019-01-26T06:04:43.674Z,973.45
2019-01-26T06:05:43.646Z,973.44
2019-01-26T06:06:43.583Z,973.48
2019-01-26T06:07:43.533Z,973.46
2019-01-26T06:08:43.473Z,973.48
2019-01-26T06:09:43.445Z,973.47
2019-01-26T06:10:43.387Z,973.51
2019-01-26T06:11:43.438Z,973.47
2019-01-26T06:12:43.327Z,973.49
2019-01-26T06:13:43.336Z,973.44
2019-01-26T06:14:43.288Z,973.45
2019-01-26T06:15:43.218Z,973.51
2019-01-26T06:16:43.175Z,973.51
2019-01-26T06:17:43.102Z,973.46
2019-01-26T06:18:43.078Z,973.47
2019-01-26T06:19:43.036Z,973.52
2019-01-26T06:20:42.970Z,973.49
2019-01-26T06:21:42.929Z,973.51
2019-01-26T06:22:42.922Z,973.53
2019-01-26T06:23:42.842Z,973.51
2019-01-26T06:24:42.780Z,973.49
2019-01-26T06:25:42.782Z,973.54
2019-01-26T06:26:42.783Z,973.52
2019-01-26T06:27:42.680Z,973.48
2019-01-26T06:28:42.637Z,973.51
2019-01-26T06:29:42.599Z,973.48
2019-01-26T06:30:42.573Z,973.44
2019-01-26T06:31:42.508Z,973.47
2019-01-26T06:32:42.606Z,973.48
2019-01-26T06:33:42.412Z,973.45
2019-01-26T06:34:42.403Z,973.48
2019-01-26T06:35:42.319Z,973.50
2019-01-26T06:36:42.308Z,973.54
2019-01-26T06:37:42.265Z,973.53
2019-01-26T06:38:42.260Z,973.50
2019-01-26T06:39:42.139Z,973.54
2019-01-26T06:40:42.116Z,973.53
2019-01-26T06:41:42.056Z,973.52
2019-01-26T06:42:42.038Z,973.53
2019-01-26T06:43:41.975Z,973.51
2019-01-26T06:44:41.935Z,973.52
2019-01-26T06:45:41.886Z,973.49
2019-01-26T06:46:41.894Z,973.52
2019-01-26T06:47:41.911Z,973.53
2019-01-26T06:48:41.796Z,973.52
2019-01-26T06:49:41.727Z,973.53
2019-01-26T06:50:41.670Z,973.53
2019-01-26T06:51:41.625Z,973.45
2019-01-26T06:52:41.591Z,973.44
2019-01-26T06:53:43.243Z,973.41
2019-01-26T06:54:41.575Z,973.48
2019-01-26T06:55:41.490Z,973.46
2019-01-26T06:56:41.479Z,973.45
2019-01-26T06:57:41.379Z,973.44
2019-01-26T06:58:41.345Z,973.47
2019-01-26T06:59:41.316Z,973.45
2019-01-26T07:00:41.268Z,973.43
2019-01-26T07:01:41.235Z,973.42
2019-01-26T07:02:41.177Z,973.45
2019-01-26T07:03:41.127Z,973.41
2019-01-26T07:04:41.129Z,973.38
2019-01-26T07:05:41.970Z,973.40
2019-01-26T07:06:40.998Z,973.37
2019-01-26T07:07:41.014Z,973.40
2019-01-26T07:08:40.903Z,973.34
2019-01-26T07:09:41.000Z,973.35
2019-01-26T07:10:40.859Z,973.33
2019-01-26T07:11:40.773Z,973.33
2019-01-26T07:12:40.755Z,973.33
2019-01-26T07:13:40.699Z,973.35
2019-01-26T07:14:40.650Z,973.37
2019-01-26T07:15:40.613Z,973.36
2019-01-26T07:16:40.565Z,973.35
2019-01-26T07:17:40.525Z,973.33
2019-01-26T07:18:40.504Z,973.32
2019-01-26T07:19:40.467Z,973.35
2019-01-26T07:20:40.411Z,973.36
2019-01-26T07:21:40.369Z,973.35
2019-01-26T07:22:40.354Z,973.34
2019-01-26T07:23:40.287Z,973.31
2019-01-26T07:24:40.243Z,973.30
2019-01-26T07:25:40.231Z,973.31
2019-01-26T07:26:40.167Z,973.29
2019-01-26T07:27:40.092Z,973.28
2019-01-26T07:28:40.068Z,973.32
2019-01-26T07:29:40.030Z,973.32
2019-01-26T07:30:40.013Z,973.31
2019-01-26T07:31:39.933Z,973.33
2019-01-26T07:32:39.899Z,973.30
2019-01-26T07:33:39.839Z,973.27
2019-01-26T07:34:39.806Z,973.26
2019-01-26T07:35:39.756Z,973.29
2019-01-26T07:36:39.805Z,973.28
2019-01-26T07:37:39.683Z,973.30
2019-01-26T07:38:39.661Z,973.24
2019-01-26T07:39:39.611Z,973.25
2019-01-26T07:40:39.551Z,973.31
2019-01-26T07:41:39.535Z,973.30
2019-01-26T07:42:39.473Z,973.24
2019-01-26T07:43:39.419Z,973.24
2019-01-26T07:44:39.375Z,973.21
2019-01-26T07:45:39.366Z,973.23
2019-01-26T07:46:39.314Z,973.24
2019-01-26T07:47:39.338Z,973.25
2019-01-26T07:48:39.205Z,973.24
2019-01-26T07:49:39.201Z,973.26
2019-01-26T07:50:39.650Z,973.21
2019-01-26T07:51:39.104Z,973.22
2019-01-26T07:52:39.086Z,973.25
2019-01-26T07:53:39.026Z,973.14
2019-01-26T07:54:38.960Z,973.09
2019-01-26T07:55:38.963Z,973.16
2019-01-26T07:56:39.697Z,973.11
2019-01-26T07:57:38.867Z,973.12
2019-01-26T07:58:38.782Z,973.08
2019-01-26T07:59:38.863Z,973.10
2019-01-26T08:00:38.739Z,973.08
2019-01-26T08:01:38.686Z,973.09
2019-01-26T08:02:38.615Z,973.05
2019-01-26T08:03:38.643Z,973.04
2019-01-26T08:04:38.566Z,973.04
2019-01-26T08:05:38.504Z,973.07
2019-01-26T08:06:38.455Z,973.06
2019-01-26T08:07:38.442Z,973.09
2019-01-26T08:08:38.381Z,973.03
2019-01-26T08:09:38.383Z,973.05
2019-01-26T08:10:38.307Z,973.02
2019-01-26T08:11:38.260Z,972.98
2019-01-26T08:12:38.233Z,973.02
2019-01-26T08:13:38.193Z,972.99
2019-01-26T08:14:38.118Z,972.96
2019-01-26T08:15:38.197Z,972.97
2019-01-26T08:16:38.085Z,972.95
2019-01-26T08:17:38.016Z,972.94
2019-01-26T08:18:38.043Z,972.91
2019-01-26T08:19:37.907Z,972.94
2019-01-26T08:20:37.905Z,972.95
2019-01-26T08:21:37.859Z,972.95
2019-01-26T08:22:37.797Z,972.88
2019-01-26T08:23:37.799Z,972.91
2019-01-26T08:24:37.714Z,972.92
2019-01-26T08:25:37.706Z,972.88
2019-01-26T08:26:37.651Z,972.89
2019-01-26T08:27:37.575Z,972.90
2019-01-26T08:28:37.528Z,972.91
2019-01-26T08:29:37.518Z,972.92
2019-01-26T08:30:37.444Z,972.84
2019-01-26T08:31:37.457Z,972.79
2019-01-26T08:32:37.365Z,972.75
2019-01-26T08:33:37.318Z,972.72
2019-01-26T08:34:37.295Z,972.71
2019-01-26T08:35:37.256Z,972.70
2019-01-26T08:36:37.177Z,972.68
2019-01-26T08:37:37.167Z,972.66
2019-01-26T08:38:37.097Z,972.65
2019-01-26T08:39:37.060Z,972.63
2019-01-26T08:40:37.023Z,972.66
2019-01-26T08:41:36.990Z,972.66
2019-01-26T08:42:36.937Z,972.59
2019-01-26T08:43:36.899Z,972.53
2019-01-26T08:44:36.866Z,972.54
2019-01-26T08:45:36.822Z,972.57
2019-01-26T08:46:36.790Z,972.52
2019-01-26T08:47:36.736Z,972.57
2019-01-26T08:48:36.704Z,972.52
2019-01-26T08:49:36.639Z,972.54
2019-01-26T08:50:36.652Z,972.52
2019-01-26T08:51:36.562Z,972.56
2019-01-26T08:52:36.530Z,972.53
2019-01-26T08:53:36.493Z,972.50
2019-01-26T08:54:36.443Z,972.47
2019-01-26T08:55:36.390Z,972.47
2019-01-26T08:56:36.359Z,972.44
2019-01-26T08:57:36.345Z,972.41
2019-01-26T08:58:36.269Z,972.40
2019-01-26T08:59:36.244Z,972.37
2019-01-26T09:00:36.208Z,972.41
2019-01-26T09:01:36.193Z,972.35
2019-01-26T09:02:36.105Z,972.31
2019-01-26T09:03:36.106Z,972.35
2019-01-26T09:04:36.024Z,972.37
2019-01-26T09:05:36.094Z,972.30
2019-01-26T09:06:35.941Z,972.36
2019-01-26T09:07:35.906Z,972.25
2019-01-26T09:08:35.858Z,972.25
2019-01-26T09:09:35.822Z,972.22
2019-01-26T09:10:35.772Z,972.26
2019-01-26T09:11:35.738Z,972.26
2019-01-26T09:12:35.689Z,972.24
2019-01-26T09:13:35.643Z,972.21
2019-01-26T09:14:35.594Z,972.23
2019-01-26T09:15:35.584Z,972.25
2019-01-26T09:16:35.529Z,972.28
2019-01-26T09:17:35.503Z,972.29
2019-01-26T09:18:39.005Z,972.21
2019-01-26T09:19:38.195Z,972.17
2019-01-26T09:20:35.383Z,972.17
2019-01-26T09:21:35.342Z,972.16
2019-01-26T09:22:35.273Z,972.12
2019-01-26T09:23:35.252Z,972.16
2019-01-26T09:24:35.247Z,972.13
2019-01-26T09:25:35.173Z,972.12
2019-01-26T09:26:35.117Z,972.11
2019-01-26T09:27:35.080Z,972.10
2019-01-26T09:28:35.064Z,972.09
2019-01-26T09:29:34.995Z,972.07
2019-01-26T09:30:35.002Z,972.07
2019-01-26T09:31:34.907Z,972.13
2019-01-26T09:32:34.871Z,972.14
2019-01-26T09:33:34.810Z,972.08
2019-01-26T09:34:34.782Z,972.08
2019-01-26T09:35:34.749Z,972.07
2019-01-26T09:36:34.707Z,972.06
2019-01-26T09:37:34.659Z,972.07
2019-01-26T09:38:34.625Z,972.06
2019-01-26T09:39:34.579Z,972.03
2019-01-26T09:40:34.533Z,972.07
2019-01-26T09:41:34.544Z,972.07
2019-01-26T09:42:34.451Z,972.08
2019-01-26T09:43:34.426Z,972.04
2019-01-26T09:44:34.364Z,972.07
2019-01-26T09:45:34.352Z,972.06
2019-01-26T09:46:34.278Z,972.02
2019-01-26T09:47:34.241Z,972.01
2019-01-26T09:48:34.240Z,972.00
2019-01-26T09:49:34.215Z,972.03
2019-01-26T09:50:34.139Z,972.01
2019-01-26T09:51:34.091Z,971.99
2019-01-26T09:52:34.047Z,971.96
2019-01-26T09:53:33.996Z,971.97
2019-01-26T09:54:33.971Z,971.94
2019-01-26T09:55:33.925Z,971.91
2019-01-26T09:56:33.907Z,971.94
2019-01-26T09:57:33.848Z,971.94
2019-01-26T09:58:33.806Z,971.93
2019-01-26T09:59:33.773Z,971.87
2019-01-26T10:00:33.713Z,971.96
2019-01-26T10:01:33.668Z,971.97
2019-01-26T10:02:33.649Z,971.90
2019-01-26T10:03:33.597Z,971.98
2019-01-26T10:04:33.575Z,971.94
2019-01-26T10:05:33.515Z,971.95
2019-01-26T10:06:33.474Z,971.93
2019-01-26T10:07:33.428Z,972.00
2019-01-26T10:08:33.407Z,971.98
2019-01-26T10:09:33.376Z,972.02
2019-01-26T10:10:33.310Z,972.05
2019-01-26T10:11:33.303Z,972.05
2019-01-26T10:12:33.214Z,972.06
2019-01-26T10:13:33.210Z,972.09
2019-01-26T10:14:33.145Z,972.08
2019-01-26T10:15:33.146Z,972.12
2019-01-26T10:16:33.054Z,972.09
2019-01-26T10:17:33.358Z,972.06
2019-01-26T10:18:32.978Z,972.17
2019-01-26T10:19:32.966Z,972.15
2019-01-26T10:20:32.895Z,972.13
2019-01-26T10:21:32.856Z,972.14
2019-01-26T10:22:32.829Z,972.12
2019-01-26T10:23:32.777Z,972.12
2019-01-26T10:24:32.743Z,972.14
2019-01-26T10:25:32.685Z,972.08
2019-01-26T10:26:32.653Z,972.12
2019-01-26T10:27:32.612Z,972.11
2019-01-26T10:28:32.562Z,972.09
2019-01-26T10:29:32.525Z,972.08
2019-01-26T10:30:32.520Z,972.13
2019-01-26T10:31:32.465Z,972.10
2019-01-26T10:32:32.411Z,972.11
2019-01-26T10:33:32.381Z,972.08
2019-01-26T10:34:32.336Z,972.11
2019-01-26T10:35:32.312Z,972.11
2019-01-26T10:36:32.253Z,972.06
2019-01-26T10:37:32.276Z,972.05
2019-01-26T10:38:32.198Z,972.08
2019-01-26T10:39:32.130Z,972.02
2019-01-26T10:40:32.093Z,972.02
2019-01-26T10:41:32.052Z,972.05
2019-01-26T10:42:32.024Z,972.03
2019-01-26T10:43:31.979Z,972.05
2019-01-26T10:44:31.944Z,972.04
2019-01-26T10:45:31.886Z,971.97
2019-01-26T10:46:31.857Z,972.01
2019-01-26T10:47:31.830Z,972.02
2019-01-26T10:48:31.765Z,971.96
2019-01-26T10:49:31.721Z,971.97
2019-01-26T10:50:31.691Z,972.02
2019-01-26T10:51:31.630Z,971.97
2019-01-26T10:52:31.591Z,971.92
2019-01-26T10:53:31.545Z,971.96
2019-01-26T10:54:31.554Z,971.84
2019-01-26T10:55:31.533Z,971.83
2019-01-26T10:56:31.447Z,971.88
2019-01-26T10:57:31.407Z,971.82
2019-01-26T10:58:31.348Z,971.86
2019-01-26T10:59:31.315Z,971.79
2019-01-26T11:00:31.283Z,971.83
2019-01-26T11:01:31.227Z,971.82
2019-01-26T11:02:31.211Z,971.80
2019-01-26T11:03:31.144Z,971.83
2019-01-26T11:04:31.150Z,971.86
2019-01-26T11:05:31.062Z,971.86
2019-01-26T11:06:31.058Z,971.83
2019-01-26T11:07:30.984Z,971.79
2019-01-26T11:08:30.943Z,971.82
2019-01-26T11:09:30.908Z,971.80
2019-01-26T11:10:30.904Z,971.79
2019-01-26T11:11:30.876Z,971.78
2019-01-26T11:12:30.797Z,971.77
2019-01-26T11:13:30.748Z,971.76
2019-01-26T11:14:30.717Z,971.77
2019-01-26T11:15:30.706Z,971.76
2019-01-26T11:16:30.614Z,971.76
2019-01-26T11:17:30.585Z,971.71
2019-01-26T11:18:30.555Z,971.67
2019-01-26T11:19:30.509Z,971.74
2019-01-26T11:20:30.457Z,971.68
2019-01-26T11:21:30.414Z,971.72
2019-01-26T11:22:30.401Z,971.74
2019-01-26T11:23:30.363Z,971.74
2019-01-26T11:24:30.327Z,971.75
2019-01-26T11:25:30.268Z,971.68
2019-01-26T11:26:30.235Z,971.70
2019-01-26T11:27:30.190Z,971.75
2019-01-26T11:28:30.155Z,971.72
2019-01-26T11:29:30.099Z,971.70
2019-01-26T11:30:30.103Z,971.67
2019-01-26T11:31:30.042Z,971.72
2019-01-26T11:32:29.983Z,971.71
2019-01-26T11:33:30.020Z,971.75
2019-01-26T11:34:29.941Z,971.67
2019-01-26T11:35:29.879Z,971.66
2019-01-26T11:36:29.816Z,971.65
2019-01-26T11:37:29.826Z,971.69
2019-01-26T11:38:29.749Z,971.71
2019-01-26T11:39:29.709Z,971.67
2019-01-26T11:40:29.660Z,971.69
2019-01-26T11:41:29.659Z,971.66
2019-01-26T11:42:29.572Z,971.60
2019-01-26T11:43:29.536Z,971.66
2019-01-26T11:44:29.542Z,971.64
2019-01-26T11:45:29.456Z,971.66
2019-01-26T11:46:29.418Z,971.61
2019-01-26T11:47:29.402Z,971.59
2019-01-26T11:48:29.394Z,971.64
2019-01-26T11:49:29.348Z,971.61
2019-01-26T11:50:29.263Z,971.63
2019-01-26T11:51:29.230Z,971.66
2019-01-26T11:52:29.208Z,971.65
2019-01-26T11:53:29.153Z,971.60
2019-01-26T11:54:29.102Z,971.59
2019-01-26T11:55:29.076Z,971.57
2019-01-26T11:56:29.011Z,971.58
2019-01-26T11:57:28.982Z,971.53
2019-01-26T11:58:28.933Z,971.51
2019-01-26T11:59:28.914Z,971.57
2019-01-26T12:00:28.862Z,971.53
2019-01-26T12:01:28.857Z,971.60
2019-01-26T12:02:29.958Z,971.62
2019-01-26T12:03:28.736Z,971.59
2019-01-26T12:04:28.688Z,971.57
2019-01-26T12:05:28.665Z,971.52
2019-01-26T12:06:28.640Z,971.54
2019-01-26T12:07:28.571Z,971.58
2019-01-26T12:08:28.526Z,971.57
2019-01-26T12:09:28.667Z,971.55
2019-01-26T12:10:28.602Z,971.52
2019-01-26T12:11:28.463Z,971.57
2019-01-26T12:12:28.429Z,971.51
2019-01-26T12:13:28.373Z,971.52
2019-01-26T12:14:28.296Z,971.54
2019-01-26T12:15:28.272Z,971.53
2019-01-26T12:16:28.232Z,971.55
2019-01-26T12:17:28.198Z,971.54
2019-01-26T12:18:28.147Z,971.53
2019-01-26T12:19:28.121Z,971.52
2019-01-26T12:20:28.080Z,971.55
2019-01-26T12:21:28.038Z,971.49
2019-01-26T12:22:27.997Z,971.50
2019-01-26T12:23:27.936Z,971.47
2019-01-26T12:24:27.906Z,971.55
2019-01-26T12:25:27.882Z,971.53
2019-01-26T12:26:27.825Z,971.47
2019-01-26T12:27:27.793Z,971.52
2019-01-26T12:28:27.754Z,971.57